This is the latest recevied weather packets stored in our database for station/object IZ1UKX-13. If no packets are shown the sender has not sent any weather packets the latest 10 day(s).
| Time | Temp. | Humidity | Pressure | Rain* | Wind** | Luminosity | Snow |
|---|---|---|---|---|---|---|---|
| 1788072235 | 21.67° C | 62% | 1022.7 hPa | 0 mm | - | 0 W/m² | - |
| 1788071935 | 21.67° C | 63% | 1023.8 hPa | 0 mm | - | 0 W/m² | - |
| 1788071909 | 21.67° C | 63% | 1022.7 hPa | 0 mm | - | 0 W/m² | - |
| 1788071609 | 20.56° C | 63% | 1022.7 hPa | 0 mm | - | 0 W/m² | - |
| 1788071309 | 20.56° C | 66% | 1022.7 hPa | 0 mm | - | 0 W/m² | - |
| 1788071009 | 19.44° C | 69% | 1023.2 hPa | 0 mm | - | 0 W/m² | - |
| 1788070709 | 19.44° C | 69% | 1023.2 hPa | 0 mm | - | 0 W/m² | - |
| 1788070409 | 18.89° C | 70% | 1023.2 hPa | 0 mm | - | 0 W/m² | - |
| 1788070109 | 18.33° C | 74% | 1023.2 hPa | 0 mm | - | 0 W/m² | - |
| 1788069809 | 17.78° C | 77% | 1023.2 hPa | 0 mm | - | 0 W/m² | - |
| 1788069509 | 16.11° C | 84% | 1023.6 hPa | 0 mm | - | 0 W/m² | - |
| 1788069209 | 13.89° C | 88% | 1024 hPa | 0 mm | - | 0 W/m² | - |
| 1788068909 | 13.33° C | 88% | 1024.5 hPa | 0 mm | - | 0 W/m² | - |
| 1788068609 | 13.33° C | 89% | 1024.5 hPa | 0 mm | - | 0 W/m² | - |
| 1788068309 | 13.33° C | 89% | 1024.5 hPa | 0 mm | - | 0 W/m² | - |
| 1788068009 | 13.33° C | 88% | 1024.5 hPa | 0 mm | - | 0 W/m² | - |
| 1788067709 | 12.78° C | 89% | 1024.5 hPa | 0 mm | - | 0 W/m² | - |
| 1788067409 | 12.78° C | 89% | 1024.5 hPa | 0 mm | - | 0 W/m² | - |
| 1788067109 | 12.78° C | 89% | 1024.5 hPa | 0 mm | - | 0 W/m² | - |
| 1788066809 | 12.78° C | 89% | 1024.5 hPa | 0 mm | - | 0 W/m² | - |
| 1788066509 | 12.78° C | 89% | 1024.5 hPa | 0 mm | - | 0 W/m² | - |
| 1788066209 | 12.78° C | 89% | 1024.5 hPa | 0 mm | - | 0 W/m² | - |
| 1788065883 | 12.78° C | 89% | 1024.5 hPa | 0 mm | - | 0 W/m² | - |
| 1788065583 | 12.78° C | 89% | 1024.5 hPa | 0 mm | - | 0 W/m² | - |
| 1788065283 | 12.78° C | 89% | 1024.5 hPa | 0 mm | - | 0 W/m² | - |
* Rain latest hour (hover to see other rain measurements)
** Current wind speed in m/s (hover to see current wind gust speed)